Wetterdaten: Woche 09.07.12 - 15.07.12 (KW28)
Datum Zeit Temp. A. Feuchte A. Luftdruck Regen Wind Richtung Taupunkt Windchill Windben
09.07.2012 00:00 23,4 C 70 % 1009,2 hPa 0,0 l/m 2,1 km/h N 17,5 C 23,4 C 8,4 km/h
09.07.2012 01:00 23,2 C 69 % 1010,2 hPa 0,8 l/m 4,3 km/h N 17,1 C 23,0 C 16,5 km/h
09.07.2012 02:00 21,5 C 75 % 1010,7 hPa 1,6 l/m 6,1 km/h N 16,8 C 21,1 C 20,1 km/h
09.07.2012 03:00 20,6 C 78 % 1011,3 hPa 0,0 l/m 3,8 km/h N 16,5 C 20,5 C 10,9 km/h
09.07.2012 04:00 20,3 C 76 % 1011,8 hPa 0,5 l/m 5,2 km/h N 15,9 C 19,9 C 14,9 km/h
09.07.2012 05:00 19,4 C 81 % 1012,2 hPa 1,3 l/m 0,7 km/h N 16,1 C 19,4 C 6,4 km/h
09.07.2012 06:00 18,8 C 81 % 1012,0 hPa 0,3 l/m 0,9 km/h N 15,4 C 18,8 C 6,0 km/h
09.07.2012 07:00 19,8 C 81 % 1012,4 hPa 0,0 l/m 2,0 km/h N 16,4 C 19,8 C 8,8 km/h
09.07.2012 08:00 21,8 C 78 % 1012,4 hPa 0,0 l/m 1,9 km/h N 17,7 C 21,8 C 9,3 km/h
09.07.2012 09:00 24,1 C 67 % 1012,5 hPa 0,0 l/m 7,2 km/h N 17,5 C 23,7 C 20,5 km/h
09.07.2012 10:00 23,4 C 69 % 1013,0 hPa 0,0 l/m 7,7 km/h N 17,3 C 23,0 C 19,7 km/h
09.07.2012 11:00 23,8 C 69 % 1013,2 hPa 0,0 l/m 7,9 km/h N 17,8 C 23,3 C 19,7 km/h
09.07.2012 12:00 24,9 C 64 % 1013,0 hPa 0,0 l/m 8,0 km/h N 17,5 C 24,5 C 20,9 km/h
09.07.2012 13:00 25,7 C 61 % 1012,8 hPa 0,0 l/m 9,8 km/h N 17,7 C 25,0 C 23,3 km/h
09.07.2012 14:00 25,7 C 62 % 1012,5 hPa 0,0 l/m 10,5 km/h N 17,8 C 24,8 C 24,9 km/h
09.07.2012 15:00 25,7 C 59 % 1012,2 hPa 0,0 l/m 8,9 km/h N 17,1 C 25,1 C 20,9 km/h
09.07.2012 16:00 26,1 C 55 % 1011,8 hPa 0,0 l/m 6,7 km/h N 16,5 C 26,0 C 18,1 km/h
09.07.2012 17:00 26,4 C 55 % 1011,5 hPa 0,0 l/m 6,5 km/h N 16,6 C 26,3 C 16,1 km/h
09.07.2012 18:00 25,2 C 60 % 1011,7 hPa 0,0 l/m 4,7 km/h N 16,8 C 25,2 C 13,3 km/h
09.07.2012 19:00 24,6 C 62 % 1011,7 hPa 0,0 l/m 5,3 km/h N 16,7 C 24,6 C 14,9 km/h
09.07.2012 20:00 23,9 C 63 % 1011,7 hPa 0,0 l/m 3,8 km/h N 16,4 C 23,9 C 13,3 km/h
09.07.2012 21:00 22,8 C 69 % 1012,6 hPa 0,3 l/m 3,0 km/h N 16,8 C 22,8 C 12,1 km/h
09.07.2012 22:00 20,9 C 76 % 1012,8 hPa 0,0 l/m 0,7 km/h N 16,5 C 20,9 C 6,8 km/h
09.07.2012 23:00 20,5 C 77 % 1013,0 hPa 0,0 l/m 2,5 km/h N 16,3 C 20,5 C 10,1 km/h
10.07.2012 00:00 20,1 C 77 % 1013,1 hPa 0,0 l/m 0,8 km/h N 15,9 C 20,1 C 6,4 km/h
10.07.2012 01:00 19,9 C 77 % 1013,1 hPa 0,0 l/m 0,9 km/h N 15,8 C 19,9 C 8,4 km/h
10.07.2012 02:00 19,9 C 77 % 1012,8 hPa 0,0 l/m 0,0 km/h N 15,7 C 19,9 C 0,8 km/h
10.07.2012 03:00 19,8 C 77 % 1012,9 hPa 0,0 l/m 0,5 km/h N 15,6 C 19,8 C 4,0 km/h
10.07.2012 04:00 19,4 C 79 % 1012,9 hPa 0,0 l/m 0,1 km/h N 15,6 C 19,4 C 2,0 km/h
10.07.2012 05:00 19,4 C 79 % 1013,1 hPa 0,0 l/m 0,0 km/h N 15,7 C 19,4 C 0,0 km/h
10.07.2012 06:00 19,5 C 81 % 1013,0 hPa 0,0 l/m 0,1 km/h N 16,1 C 19,5 C 0,8 km/h
10.07.2012 07:00 20,1 C 80 % 1013,3 hPa 0,3 l/m 0,1 km/h N 16,5 C 20,1 C 1,6 km/h
10.07.2012 08:00 22,7 C 72 % 1013,1 hPa 0,0 l/m 2,0 km/h N 17,4 C 22,7 C 7,2 km/h
10.07.2012 09:00 25,4 C 62 % 1013,2 hPa 0,0 l/m 0,9 km/h N 17,6 C 25,4 C 6,8 km/h
10.07.2012 10:00 26,8 C 53 % 1013,2 hPa 0,0 l/m 1,2 km/h N 16,3 C 26,8 C 8,5 km/h
10.07.2012 11:00 28,1 C 48 % 1013,0 hPa 0,0 l/m 1,5 km/h N 15,9 C 28,1 C 7,2 km/h
10.07.2012 12:00 28,4 C 42 % 1012,8 hPa 0,0 l/m 2,8 km/h N 14,2 C 28,4 C 10,9 km/h
10.07.2012 13:00 29,6 C 40 % 1012,4 hPa 0,0 l/m 2,2 km/h N 14,4 C 29,6 C 11,7 km/h
10.07.2012 14:00 30,3 C 36 % 1011,6 hPa 0,0 l/m 2,8 km/h N 13,4 C 30,3 C 11,3 km/h
10.07.2012 15:00 30,5 C 38 % 1011,3 hPa 0,0 l/m 5,3 km/h N 14,6 C 30,6 C 16,9 km/h
10.07.2012 16:00 29,3 C 40 % 1010,9 hPa 0,0 l/m 4,8 km/h N 14,2 C 29,3 C 18,5 km/h
10.07.2012 17:00 28,0 C 46 % 1011,5 hPa 0,0 l/m 2,4 km/h N 15,1 C 28,0 C 12,9 km/h
10.07.2012 18:00 23,8 C 68 % 1012,9 hPa 2,6 l/m 1,6 km/h N 17,5 C 23,8 C 13,7 km/h
10.07.2012 19:00 19,4 C 81 % 1013,8 hPa 3,6 l/m 0,8 km/h N 15,9 C 19,4 C 8,9 km/h
10.07.2012 20:00 18,8 C 80 % 1013,7 hPa 0,0 l/m 0,0 km/h N 15,3 C 18,8 C 4,0 km/h
10.07.2012 21:00 18,6 C 80 % 1013,2 hPa 0,0 l/m 0,1 km/h N 15,0 C 18,6 C 2,4 km/h
10.07.2012 22:00 18,5 C 79 % 1013,0 hPa 0,0 l/m 0,0 km/h N 14,8 C 18,5 C 1,2 km/h
10.07.2012 23:00 18,3 C 79 % 1012,8 hPa 0,0 l/m 0,0 km/h N 14,6 C 18,3 C 0,4 km/h
11.07.2012 00:00 17,6 C 80 % 1012,9 hPa 0,0 l/m 1,3 km/h N 14,2 C 17,6 C 8,9 km/h
11.07.2012 01:00 17,2 C 81 % 1012,6 hPa 0,0 l/m 0,5 km/h N 13,9 C 17,2 C 4,0 km/h
11.07.2012 02:00 17,1 C 81 % 1012,6 hPa 0,0 l/m 0,0 km/h N 13,7 C 17,1 C 1,2 km/h
11.07.2012 03:00 16,7 C 81 % 1012,6 hPa 0,0 l/m 0,0 km/h N 13,4 C 16,7 C 0,0 km/h
11.07.2012 04:00 16,3 C 80 % 1012,9 hPa 0,0 l/m 0,0 km/h N 12,8 C 16,3 C 0,0 km/h
11.07.2012 05:00 16,1 C 80 % 1013,1 hPa 0,0 l/m 0,0 km/h N 12,6 C 16,1 C 0,0 km/h
11.07.2012 06:00 16,4 C 79 % 1013,7 hPa 0,0 l/m 0,0 km/h N 12,7 C 16,4 C 0,0 km/h
11.07.2012 07:00 17,6 C 79 % 1013,5 hPa 0,0 l/m 0,0 km/h N 13,9 C 17,6 C 0,0 km/h
11.07.2012 08:00 19,5 C 80 % 1013,5 hPa 0,0 l/m 0,3 km/h N 16,0 C 19,5 C 3,6 km/h
11.07.2012 09:00 22,8 C 76 % 1013,1 hPa 0,0 l/m 0,2 km/h N 18,2 C 22,8 C 3,2 km/h
11.07.2012 10:00 26,0 C 63 % 1012,7 hPa 0,0 l/m 1,3 km/h N 18,2 C 26,0 C 8,0 km/h
11.07.2012 11:00 26,4 C 54 % 1012,8 hPa 0,3 l/m 6,3 km/h N 16,2 C 26,3 C 18,5 km/h
11.07.2012 12:00 26,5 C 54 % 1013,1 hPa 0,0 l/m 8,2 km/h N 16,5 C 26,1 C 20,5 km/h
11.07.2012 13:00 25,9 C 56 % 1013,2 hPa 0,0 l/m 9,3 km/h N 16,4 C 25,3 C 21,7 km/h
11.07.2012 14:00 25,4 C 56 % 1013,0 hPa 0,0 l/m 8,5 km/h N 15,9 C 24,9 C 19,7 km/h
11.07.2012 15:00 26,0 C 52 % 1012,3 hPa 0,0 l/m 8,6 km/h N 15,2 C 25,6 C 20,9 km/h
11.07.2012 16:00 25,1 C 52 % 1012,3 hPa 0,0 l/m 6,1 km/h N 14,6 C 25,0 C 17,7 km/h
11.07.2012 17:00 24,5 C 54 % 1012,2 hPa 0,0 l/m 2,5 km/h N 14,6 C 24,5 C 10,4 km/h
11.07.2012 18:00 24,2 C 58 % 1011,4 hPa 0,0 l/m 2,1 km/h N 15,4 C 24,2 C 8,8 km/h
11.07.2012 19:00 24,1 C 61 % 1011,3 hPa 0,0 l/m 2,7 km/h N 16,1 C 24,1 C 10,5 km/h
11.07.2012 20:00 23,5 C 62 % 1011,6 hPa 0,0 l/m 1,5 km/h N 15,8 C 23,5 C 8,4 km/h
11.07.2012 21:00 22,6 C 63 % 1012,0 hPa 0,0 l/m 4,0 km/h N 15,2 C 22,6 C 14,9 km/h
11.07.2012 22:00 22,1 C 64 % 1012,1 hPa 0,0 l/m 4,2 km/h N 14,8 C 22,0 C 17,3 km/h
11.07.2012 23:00 21,8 C 65 % 1012,1 hPa 0,0 l/m 5,8 km/h N 15,0 C 21,8 C 17,3 km/h
12.07.2012 00:00 21,5 C 67 % 1012,0 hPa 0,0 l/m 2,0 km/h N 15,1 C 21,5 C 10,1 km/h
12.07.2012 01:00 20,9 C 68 % 1012,0 hPa 0,0 l/m 4,9 km/h N 14,8 C 20,6 C 15,7 km/h
12.07.2012 02:00 20,6 C 69 % 1012,3 hPa 0,0 l/m 9,5 km/h N 14,6 C 19,5 C 23,7 km/h
12.07.2012 03:00 19,7 C 71 % 1012,6 hPa 0,0 l/m 3,2 km/h N 14,2 C 19,7 C 17,7 km/h
12.07.2012 04:00 19,2 C 70 % 1012,3 hPa 0,0 l/m 6,7 km/h N 13,6 C 18,4 C 20,9 km/h
12.07.2012 05:00 19,5 C 69 % 1012,3 hPa 0,0 l/m 17,0 km/h N 13,6 C 16,1 C 38,6 km/h
12.07.2012 06:00 19,0 C 70 % 1012,9 hPa 0,0 l/m 17,2 km/h N 13,4 C 15,6 C 40,6 km/h
12.07.2012 07:00 18,8 C 66 % 1013,9 hPa 0,0 l/m 10,1 km/h N 12,3 C 17,2 C 34,6 km/h
12.07.2012 08:00 18,5 C 62 % 1014,5 hPa 0,0 l/m 13,5 km/h N 11,0 C 16,1 C 37,0 km/h
12.07.2012 09:00 18,9 C 61 % 1015,1 hPa 0,0 l/m 14,6 km/h N 11,2 C 16,0 C 37,0 km/h
12.07.2012 10:00 18,8 C 64 % 1015,5 hPa 0,0 l/m 13,2 km/h N 11,8 C 16,4 C 31,0 km/h
12.07.2012 11:00 19,2 C 64 % 1015,5 hPa 0,0 l/m 10,9 km/h N 12,1 C 17,4 C 27,8 km/h
12.07.2012 12:00 20,7 C 56 % 1015,4 hPa 0,0 l/m 10,1 km/h N 11,6 C 19,4 C 31,0 km/h
12.07.2012 13:00 21,9 C 51 % 1015,2 hPa 0,0 l/m 10,6 km/h N 11,3 C 20,5 C 28,6 km/h
12.07.2012 14:00 22,3 C 47 % 1014,8 hPa 0,0 l/m 10,2 km/h N 10,3 C 21,1 C 27,0 km/h
12.07.2012 15:00 22,6 C 45 % 1014,4 hPa 0,0 l/m 7,8 km/h N 9,8 C 22,1 C 22,5 km/h
12.07.2012 16:00 21,6 C 50 % 1014,3 hPa 0,0 l/m 4,4 km/h N 10,6 C 21,6 C 15,7 km/h
12.07.2012 17:00 21,7 C 48 % 1014,2 hPa 0,0 l/m 8,4 km/h N 10,0 C 21,0 C 23,3 km/h
12.07.2012 18:00 21,2 C 49 % 1014,4 hPa 0,0 l/m 8,0 km/h N 10,1 C 20,6 C 22,9 km/h
12.07.2012 19:00 20,8 C 50 % 1014,7 hPa 0,0 l/m 7,3 km/h N 9,9 C 20,4 C 22,5 km/h
12.07.2012 20:00 20,5 C 50 % 1015,0 hPa 0,0 l/m 9,0 km/h N 9,7 C 19,5 C 24,1 km/h
12.07.2012 21:00 19,2 C 59 % 1015,7 hPa 0,0 l/m 5,9 km/h N 10,8 C 19,1 C 20,1 km/h
12.07.2012 22:00 18,6 C 58 % 1016,2 hPa 0,0 l/m 2,0 km/h N 10,2 C 18,6 C 10,0 km/h
12.07.2012 23:00 18,9 C 57 % 1016,2 hPa 0,0 l/m 4,1 km/h N 10,0 C 18,9 C 15,3 km/h
13.07.2012 00:00 18,5 C 59 % 1016,5 hPa 0,0 l/m 1,8 km/h N 10,3 C 18,5 C 8,4 km/h
13.07.2012 01:00 17,7 C 64 % 1016,5 hPa 0,0 l/m 1,4 km/h N 10,7 C 17,7 C 6,4 km/h
13.07.2012 02:00 17,1 C 66 % 1016,3 hPa 0,0 l/m 0,2 km/h N 10,8 C 17,1 C 4,0 km/h
13.07.2012 03:00 16,7 C 61 % 1016,1 hPa 0,0 l/m 0,9 km/h N 9,1 C 16,7 C 6,8 km/h
13.07.2012 04:00 16,4 C 61 % 1015,4 hPa 0,0 l/m 0,1 km/h N 8,7 C 16,4 C 0,8 km/h
13.07.2012 05:00 15,8 C 65 % 1015,2 hPa 0,0 l/m 0,0 km/h N 9,1 C 15,8 C 0,4 km/h
13.07.2012 06:00 15,5 C 71 % 1015,4 hPa 1,3 l/m 0,0 km/h N 10,3 C 15,5 C 0,8 km/h
13.07.2012 07:00 13,8 C 79 % 1015,5 hPa 5,2 l/m 0,3 km/h N 10,2 C 13,8 C 2,4 km/h
13.07.2012 08:00 12,8 C 82 % 1015,2 hPa 3,9 l/m 0,0 km/h N 9,7 C 12,8 C 0,4 km/h
13.07.2012 09:00 12,5 C 82 % 1014,8 hPa 0,5 l/m 0,0 km/h N 9,4 C 12,5 C 0,4 km/h
13.07.2012 10:00 13,0 C 81 % 1014,3 hPa 0,0 l/m 0,0 km/h N 9,7 C 13,0 C 0,4 km/h
13.07.2012 11:00 13,5 C 81 % 1014,1 hPa 0,0 l/m 0,0 km/h N 10,3 C 13,5 C 0,0 km/h
13.07.2012 12:00 13,9 C 81 % 1013,7 hPa 0,0 l/m 0,3 km/h N 10,7 C 13,9 C 2,4 km/h
13.07.2012 13:00 14,2 C 81 % 1013,5 hPa 1,3 l/m 1,5 km/h N 10,9 C 14,2 C 7,6 km/h
13.07.2012 14:00 14,7 C 80 % 1013,0 hPa 2,1 l/m 2,3 km/h N 11,3 C 14,7 C 7,6 km/h
13.07.2012 15:00 14,6 C 80 % 1012,9 hPa 1,0 l/m 2,8 km/h N 11,2 C 14,6 C 9,3 km/h
13.07.2012 16:00 14,7 C 80 % 1012,5 hPa 1,3 l/m 1,5 km/h N 11,3 C 14,7 C 6,0 km/h
13.07.2012 17:00 14,9 C 79 % 1011,8 hPa 0,5 l/m 3,0 km/h N 11,3 C 14,9 C 9,2 km/h
13.07.2012 18:00 15,3 C 79 % 1011,5 hPa 0,0 l/m 3,5 km/h N 11,6 C 15,3 C 10,5 km/h
13.07.2012 19:00 15,6 C 80 % 1011,3 hPa 0,0 l/m 1,1 km/h N 12,0 C 15,6 C 6,4 km/h
13.07.2012 20:00 15,4 C 80 % 1011,3 hPa 0,0 l/m 0,2 km/h N 12,0 C 15,4 C 3,6 km/h
13.07.2012 21:00 15,4 C 80 % 1011,1 hPa 0,0 l/m 1,3 km/h O-SO 12,0 C 15,4 C 6,4 km/h
13.07.2012 22:00 15,3 C 80 % 1010,8 hPa 0,0 l/m 1,9 km/h S-SO 11,8 C 15,3 C 8,9 km/h
13.07.2012 23:00 14,8 C 80 % 1010,3 hPa 0,0 l/m 3,4 km/h SO 11,3 C 14,8 C 10,5 km/h
14.07.2012 00:00 14,7 C 78 % 1010,0 hPa 0,0 l/m 3,7 km/h O-SO 11,0 C 14,7 C 10,1 km/h
14.07.2012 01:00 14,4 C 78 % 1009,6 hPa 0,0 l/m 3,6 km/h SO 10,6 C 14,4 C 10,1 km/h
14.07.2012 02:00 14,2 C 77 % 1009,0 hPa 0,0 l/m 1,3 km/h SO 10,2 C 14,2 C 6,0 km/h
14.07.2012 03:00 14,3 C 77 % 1008,6 hPa 0,0 l/m 0,6 km/h S 10,3 C 14,3 C 4,8 km/h
14.07.2012 04:00 14,2 C 77 % 1008,4 hPa 0,0 l/m 0,1 km/h N 10,2 C 14,2 C 2,8 km/h
14.07.2012 05:00 14,1 C 77 % 1008,6 hPa 0,0 l/m 0,6 km/h N 10,2 C 14,1 C 5,2 km/h
14.07.2012 06:00 14,3 C 77 % 1008,8 hPa 0,0 l/m 0,2 km/h N 10,3 C 14,3 C 2,4 km/h
14.07.2012 07:00 14,5 C 78 % 1008,7 hPa 0,0 l/m 0,1 km/h N 10,6 C 14,5 C 2,8 km/h
14.07.2012 08:00 14,9 C 79 % 1008,8 hPa 0,0 l/m 2,7 km/h N 11,2 C 14,9 C 7,6 km/h
14.07.2012 09:00 16,1 C 81 % 1008,8 hPa 0,0 l/m 2,0 km/h N 12,8 C 16,1 C 8,4 km/h
14.07.2012 10:00 18,2 C 80 % 1008,7 hPa 0,0 l/m 2,5 km/h N 14,7 C 18,2 C 8,9 km/h
14.07.2012 11:00 20,3 C 75 % 1008,8 hPa 0,0 l/m 3,6 km/h N 15,7 C 20,3 C 12,5 km/h
14.07.2012 12:00 22,0 C 70 % 1008,8 hPa 0,0 l/m 1,8 km/h N 16,2 C 22,0 C 8,0 km/h
14.07.2012 13:00 22,2 C 69 % 1009,1 hPa 0,0 l/m 1,0 km/h N 16,3 C 22,2 C 7,6 km/h
14.07.2012 14:00 21,0 C 66 % 1010,1 hPa 0,0 l/m 7,0 km/h N 14,3 C 20,6 C 24,9 km/h
14.07.2012 15:00 18,6 C 74 % 1011,4 hPa 0,8 l/m 6,9 km/h N 13,8 C 17,8 C 24,6 km/h
14.07.2012 16:00 17,5 C 81 % 1012,1 hPa 1,6 l/m 0,3 km/h N 14,2 C 17,5 C 3,6 km/h
14.07.2012 17:00 16,9 C 82 % 1012,1 hPa 0,3 l/m 0,3 km/h N 13,8 C 16,9 C 4,4 km/h
14.07.2012 18:00 16,4 C 82 % 1011,5 hPa 0,5 l/m 0,1 km/h N 13,3 C 16,4 C 2,8 km/h
14.07.2012 19:00 16,1 C 82 % 1011,1 hPa 0,0 l/m 0,1 km/h N 13,0 C 16,1 C 2,8 km/h
14.07.2012 20:00 15,8 C 81 % 1011,6 hPa 0,5 l/m 0,6 km/h N 12,5 C 15,8 C 4,0 km/h
14.07.2012 21:00 15,5 C 81 % 1012,1 hPa 1,3 l/m 1,0 km/h N 12,2 C 15,5 C 6,0 km/h
14.07.2012 22:00 15,1 C 81 % 1011,8 hPa 0,0 l/m 0,2 km/h N 11,8 C 15,1 C 2,0 km/h
14.07.2012 23:00 14,8 C 80 % 1012,3 hPa 0,0 l/m 0,2 km/h N 11,5 C 14,8 C 2,8 km/h
15.07.2012 00:00 14,8 C 80 % 1011,9 hPa 0,5 l/m 0,3 km/h N 11,3 C 14,8 C 4,4 km/h
15.07.2012 01:00 14,6 C 80 % 1012,7 hPa 1,6 l/m 0,1 km/h N 11,2 C 14,6 C 4,0 km/h
15.07.2012 02:00 14,3 C 80 % 1012,7 hPa 1,6 l/m 0,4 km/h N 10,9 C 14,3 C 4,4 km/h
15.07.2012 03:00 14,1 C 80 % 1012,3 hPa 0,0 l/m 0,1 km/h N 10,7 C 14,1 C 2,8 km/h
15.07.2012 04:00 13,9 C 80 % 1012,4 hPa 0,0 l/m 0,3 km/h N 10,5 C 13,9 C 4,0 km/h
15.07.2012 05:00 13,9 C 80 % 1012,8 hPa 0,0 l/m 0,2 km/h N 10,5 C 13,9 C 3,2 km/h
15.07.2012 06:00 14,1 C 79 % 1012,5 hPa 0,0 l/m 0,5 km/h N 10,5 C 14,1 C 4,0 km/h
15.07.2012 07:00 14,5 C 79 % 1013,0 hPa 0,0 l/m 0,3 km/h N 10,9 C 14,5 C 2,8 km/h
15.07.2012 08:00 14,7 C 79 % 1013,5 hPa 0,0 l/m 0,2 km/h N 11,1 C 14,7 C 4,4 km/h
15.07.2012 09:00 15,0 C 79 % 1013,8 hPa 0,3 l/m 0,2 km/h N 11,4 C 15,0 C 4,4 km/h
15.07.2012 10:00 15,9 C 81 % 1014,3 hPa 0,0 l/m 0,0 km/h N 12,6 C 15,9 C 1,6 km/h
15.07.2012 11:00 16,4 C 82 % 1014,6 hPa 0,5 l/m 0,8 km/h N 13,3 C 16,4 C 4,8 km/h
15.07.2012 12:00 17,2 C 82 % 1014,4 hPa 0,0 l/m 1,0 km/h N 14,0 C 17,2 C 6,0 km/h
15.07.2012 13:00 18,1 C 80 % 1014,0 hPa 0,0 l/m 2,3 km/h N 14,6 C 18,1 C 8,4 km/h
15.07.2012 14:00 18,9 C 77 % 1014,0 hPa 0,0 l/m 1,2 km/h N 14,7 C 18,9 C 7,6 km/h
15.07.2012 15:00 20,4 C 67 % 1014,0 hPa 0,0 l/m 2,2 km/h N 14,0 C 20,4 C 12,0 km/h
15.07.2012 16:00 20,1 C 64 % 1014,0 hPa 0,0 l/m 3,9 km/h N 13,1 C 20,1 C 18,5 km/h
15.07.2012 17:00 19,2 C 64 % 1013,9 hPa 0,0 l/m 5,1 km/h N 12,2 C 18,8 C 18,1 km/h
15.07.2012 18:00 19,8 C 62 % 1013,9 hPa 0,0 l/m 5,9 km/h N 12,3 C 19,6 C 21,3 km/h
15.07.2012 19:00 20,3 C 59 % 1014,5 hPa 0,0 l/m 8,2 km/h N 11,8 C 19,6 C 21,3 km/h
15.07.2012 20:00 19,1 C 63 % 1014,7 hPa 0,0 l/m 3,2 km/h N 11,8 C 19,1 C 16,9 km/h
15.07.2012 21:00 18,1 C 66 % 1015,6 hPa 0,0 l/m 10,3 km/h N 11,7 C 16,5 C 28,2 km/h
15.07.2012 22:00 17,0 C 66 % 1016,3 hPa 0,0 l/m 9,4 km/h N 10,6 C 15,6 C 24,5 km/h
15.07.2012 23:00 16,8 C 67 % 1016,8 hPa 0,0 l/m 11,1 km/h N 10,7 C 14,7 C 25,8 km/h
Min-Datum _ 13.07.12 10.07.12 14.07.12 - 09.07.12 - 13.07.12 13.07.12 09.07.12
_ Min-Zeit 09:15 14:45 03:45 - 06:30 - 04:00 09:15 06:30
Minimum _ 12,4 C 34 % 1008,4 hPa - 0,0 km/h - 8,5 C 12,4 C 0,0 km/h
Max-Datum _ 10.07.12 14.07.12 15.07.12 13.07.12 12.07.12 - 11.07.12 10.07.12 12.07.12
_ Max-Zeit 14:45 09:45 23:45 07:45 06:15 - 10:15 14:45 05:30
Maximum _ 30,9 C 83 % 1017,0 hPa 5,2 l/m 20,0 km/h
N
- 18,8 C 30,9 C 48,3 km/h
N
Durchschnitt _ 19,5 C 70 % 1012,7 hPa #38,0 l/m 3,4 km/h N 13,5 C 19,2 C 11,3 km/h